sensor_id;sensor_type;location;lat;lon;timestamp;temperature;humidity
14614;DHT22;7393;51.446;6.800;2024-02-26T00:01:55;6.70;99.90
14614;DHT22;7393;51.446;6.800;2024-02-26T00:04:22;6.80;99.90
14614;DHT22;7393;51.446;6.800;2024-02-26T00:06:48;6.70;99.90
14614;DHT22;7393;51.446;6.800;2024-02-26T00:09:18;6.70;99.90
14614;DHT22;7393;51.446;6.800;2024-02-26T00:11:44;6.70;99.90
14614;DHT22;7393;51.446;6.800;2024-02-26T00:14:11;6.70;99.90
14614;DHT22;7393;51.446;6.800;2024-02-26T00:16:40;6.70;99.90
14614;DHT22;7393;51.446;6.800;2024-02-26T00:19:07;6.70;99.90
14614;DHT22;7393;51.446;6.800;2024-02-26T00:21:34;6.70;99.90
14614;DHT22;7393;51.446;6.800;2024-02-26T00:24:01;6.70;99.90
14614;DHT22;7393;51.446;6.800;2024-02-26T00:26:29;6.70;1.00
14614;DHT22;7393;51.446;6.800;2024-02-26T00:28:56;6.70;99.90
14614;DHT22;7393;51.446;6.800;2024-02-26T00:31:22;6.70;1.00
14614;DHT22;7393;51.446;6.800;2024-02-26T00:33:49;6.70;1.00
14614;DHT22;7393;51.446;6.800;2024-02-26T00:36:16;6.70;1.00
14614;DHT22;7393;51.446;6.800;2024-02-26T00:38:44;6.70;1.00
14614;DHT22;7393;51.446;6.800;2024-02-26T00:41:16;6.70;1.00
14614;DHT22;7393;51.446;6.800;2024-02-26T00:43:44;6.70;1.00
14614;DHT22;7393;51.446;6.800;2024-02-26T00:46:11;6.70;1.00
14614;DHT22;7393;51.446;6.800;2024-02-26T00:48:38;6.70;1.00
14614;DHT22;7393;51.446;6.800;2024-02-26T00:51:05;6.60;1.00
14614;DHT22;7393;51.446;6.800;2024-02-26T00:53:33;6.60;1.00
14614;DHT22;7393;51.446;6.800;2024-02-26T00:56:00;6.70;1.00
14614;DHT22;7393;51.446;6.800;2024-02-26T00:58:27;6.70;1.00
14614;DHT22;7393;51.446;6.800;2024-02-26T01:00:55;6.70;1.00
14614;DHT22;7393;51.446;6.800;2024-02-26T01:03:22;6.70;99.90
14614;DHT22;7393;51.446;6.800;2024-02-26T01:05:48;6.70;99.90
14614;DHT22;7393;51.446;6.800;2024-02-26T01:08:15;6.70;1.00
14614;DHT22;7393;51.446;6.800;2024-02-26T01:10:41;6.70;1.00
14614;DHT22;7393;51.446;6.800;2024-02-26T01:13:08;6.70;99.90
14614;DHT22;7393;51.446;6.800;2024-02-26T01:15:35;6.70;99.90
14614;DHT22;7393;51.446;6.800;2024-02-26T01:18:03;6.70;99.90
14614;DHT22;7393;51.446;6.800;2024-02-26T01:20:30;6.70;99.90
14614;DHT22;7393;51.446;6.800;2024-02-26T01:22:57;6.70;99.90
14614;DHT22;7393;51.446;6.800;2024-02-26T01:25:23;6.70;99.90
14614;DHT22;7393;51.446;6.800;2024-02-26T01:27:50;6.70;99.90
14614;DHT22;7393;51.446;6.800;2024-02-26T01:30:16;6.60;1.00
14614;DHT22;7393;51.446;6.800;2024-02-26T01:32:43;6.60;1.00
14614;DHT22;7393;51.446;6.800;2024-02-26T01:35:12;6.60;1.00
14614;DHT22;7393;51.446;6.800;2024-02-26T01:37:39;6.60;1.00
14614;DHT22;7393;51.446;6.800;2024-02-26T01:40:06;6.60;1.00
14614;DHT22;7393;51.446;6.800;2024-02-26T01:42:34;6.60;99.90
14614;DHT22;7393;51.446;6.800;2024-02-26T01:45:01;6.60;1.00
14614;DHT22;7393;51.446;6.800;2024-02-26T01:47:28;6.60;1.00
14614;DHT22;7393;51.446;6.800;2024-02-26T01:49:55;6.60;1.00
14614;DHT22;7393;51.446;6.800;2024-02-26T01:52:24;6.70;1.00
14614;DHT22;7393;51.446;6.800;2024-02-26T01:54:50;6.70;99.90
14614;DHT22;7393;51.446;6.800;2024-02-26T01:57:17;6.70;99.90
14614;DHT22;7393;51.446;6.800;2024-02-26T01:59:44;6.60;1.00
14614;DHT22;7393;51.446;6.800;2024-02-26T02:02:12;6.70;99.90
14614;DHT22;7393;51.446;6.800;2024-02-26T02:04:39;6.60;99.90
14614;DHT22;7393;51.446;6.800;2024-02-26T02:07:06;6.70;99.90
14614;DHT22;7393;51.446;6.800;2024-02-26T02:09:35;6.60;99.90
14614;DHT22;7393;51.446;6.800;2024-02-26T02:12:02;6.60;99.90
14614;DHT22;7393;51.446;6.800;2024-02-26T02:14:29;6.60;1.00
14614;DHT22;7393;51.446;6.800;2024-02-26T02:16:55;6.60;99.90
14614;DHT22;7393;51.446;6.800;2024-02-26T02:19:22;6.60;99.90
14614;DHT22;7393;51.446;6.800;2024-02-26T02:21:50;6.60;99.90
14614;DHT22;7393;51.446;6.800;2024-02-26T02:24:17;6.50;99.90
14614;DHT22;7393;51.446;6.800;2024-02-26T02:26:44;6.50;99.90
14614;DHT22;7393;51.446;6.800;2024-02-26T02:29:12;6.50;99.90
14614;DHT22;7393;51.446;6.800;2024-02-26T02:31:39;6.50;99.90
14614;DHT22;7393;51.446;6.800;2024-02-26T02:34:06;6.50;99.90
14614;DHT22;7393;51.446;6.800;2024-02-26T02:36:33;6.50;99.90
14614;DHT22;7393;51.446;6.800;2024-02-26T02:39:01;6.50;1.00
14614;DHT22;7393;51.446;6.800;2024-02-26T02:41:28;6.50;99.90
14614;DHT22;7393;51.446;6.800;2024-02-26T02:43:55;6.50;1.00
14614;DHT22;7393;51.446;6.800;2024-02-26T02:46:23;6.50;1.00
14614;DHT22;7393;51.446;6.800;2024-02-26T02:48:49;6.50;1.00
14614;DHT22;7393;51.446;6.800;2024-02-26T02:51:16;6.50;99.90
14614;DHT22;7393;51.446;6.800;2024-02-26T02:53:43;6.50;1.00
14614;DHT22;7393;51.446;6.800;2024-02-26T02:56:11;6.50;1.00
14614;DHT22;7393;51.446;6.800;2024-02-26T02:58:38;6.50;1.00
14614;DHT22;7393;51.446;6.800;2024-02-26T03:01:04;6.50;99.90
14614;DHT22;7393;51.446;6.800;2024-02-26T03:03:31;6.50;1.00
14614;DHT22;7393;51.446;6.800;2024-02-26T03:05:58;6.50;1.00
14614;DHT22;7393;51.446;6.800;2024-02-26T03:08:25;6.50;99.90
14614;DHT22;7393;51.446;6.800;2024-02-26T03:10:52;6.50;1.00
14614;DHT22;7393;51.446;6.800;2024-02-26T03:13:20;6.50;1.00
14614;DHT22;7393;51.446;6.800;2024-02-26T03:15:46;6.50;1.00
14614;DHT22;7393;51.446;6.800;2024-02-26T03:18:13;6.50;1.00
14614;DHT22;7393;51.446;6.800;2024-02-26T03:20:40;6.50;1.00
14614;DHT22;7393;51.446;6.800;2024-02-26T03:23:07;6.50;1.00
14614;DHT22;7393;51.446;6.800;2024-02-26T03:25:37;6.50;1.00
14614;DHT22;7393;51.446;6.800;2024-02-26T03:28:04;6.50;1.00
14614;DHT22;7393;51.446;6.800;2024-02-26T03:30:33;6.50;1.00
14614;DHT22;7393;51.446;6.800;2024-02-26T03:33:00;6.40;1.00
14614;DHT22;7393;51.446;6.800;2024-02-26T03:35:26;6.40;1.00
14614;DHT22;7393;51.446;6.800;2024-02-26T03:37:53;6.40;1.00
14614;DHT22;7393;51.446;6.800;2024-02-26T03:40:20;6.40;1.00
14614;DHT22;7393;51.446;6.800;2024-02-26T03:42:47;6.30;1.00
14614;DHT22;7393;51.446;6.800;2024-02-26T03:45:14;6.30;1.00
14614;DHT22;7393;51.446;6.800;2024-02-26T03:47:42;6.30;1.00
14614;DHT22;7393;51.446;6.800;2024-02-26T03:50:09;6.30;1.00
14614;DHT22;7393;51.446;6.800;2024-02-26T03:52:36;6.30;1.00
14614;DHT22;7393;51.446;6.800;2024-02-26T03:55:03;6.20;1.00
14614;DHT22;7393;51.446;6.800;2024-02-26T03:57:29;6.20;1.00
14614;DHT22;7393;51.446;6.800;2024-02-26T03:59:56;6.20;1.00
14614;DHT22;7393;51.446;6.800;2024-02-26T04:02:23;6.20;1.00
14614;DHT22;7393;51.446;6.800;2024-02-26T04:04:52;6.20;1.00
14614;DHT22;7393;51.446;6.800;2024-02-26T04:07:19;6.20;1.00
14614;DHT22;7393;51.446;6.800;2024-02-26T04:09:46;6.10;1.00
14614;DHT22;7393;51.446;6.800;2024-02-26T04:12:12;6.10;1.00
14614;DHT22;7393;51.446;6.800;2024-02-26T04:14:39;6.10;1.00
14614;DHT22;7393;51.446;6.800;2024-02-26T04:17:06;6.10;1.00
14614;DHT22;7393;51.446;6.800;2024-02-26T04:19:33;6.10;1.00
14614;DHT22;7393;51.446;6.800;2024-02-26T04:22:01;6.10;1.00
14614;DHT22;7393;51.446;6.800;2024-02-26T04:24:28;6.10;1.00
14614;DHT22;7393;51.446;6.800;2024-02-26T04:26:55;6.10;1.00
14614;DHT22;7393;51.446;6.800;2024-02-26T04:29:22;6.10;1.00
14614;DHT22;7393;51.446;6.800;2024-02-26T04:31:48;6.10;1.00
14614;DHT22;7393;51.446;6.800;2024-02-26T04:34:15;6.10;1.00
14614;DHT22;7393;51.446;6.800;2024-02-26T04:36:42;6.10;1.00
14614;DHT22;7393;51.446;6.800;2024-02-26T04:39:10;6.10;1.00
14614;DHT22;7393;51.446;6.800;2024-02-26T04:41:37;6.10;1.00
14614;DHT22;7393;51.446;6.800;2024-02-26T04:44:04;6.10;1.00
14614;DHT22;7393;51.446;6.800;2024-02-26T04:46:31;6.10;1.00
14614;DHT22;7393;51.446;6.800;2024-02-26T04:48:58;6.00;1.00
14614;DHT22;7393;51.446;6.800;2024-02-26T04:51:25;6.00;1.00
14614;DHT22;7393;51.446;6.800;2024-02-26T04:53:52;6.00;1.00
14614;DHT22;7393;51.446;6.800;2024-02-26T04:56:22;6.00;1.00
14614;DHT22;7393;51.446;6.800;2024-02-26T04:58:48;6.00;1.00
14614;DHT22;7393;51.446;6.800;2024-02-26T05:01:16;6.00;1.00
14614;DHT22;7393;51.446;6.800;2024-02-26T05:03:43;6.00;1.00
14614;DHT22;7393;51.446;6.800;2024-02-26T05:06:10;6.00;1.00
14614;DHT22;7393;51.446;6.800;2024-02-26T05:08:37;6.00;1.00
14614;DHT22;7393;51.446;6.800;2024-02-26T05:11:04;6.00;1.00
14614;DHT22;7393;51.446;6.800;2024-02-26T05:13:33;6.00;1.00
14614;DHT22;7393;51.446;6.800;2024-02-26T05:15:59;6.00;1.00
14614;DHT22;7393;51.446;6.800;2024-02-26T05:18:27;6.00;1.00
14614;DHT22;7393;51.446;6.800;2024-02-26T05:20:54;6.00;1.00
14614;DHT22;7393;51.446;6.800;2024-02-26T05:23:21;6.00;1.00
14614;DHT22;7393;51.446;6.800;2024-02-26T05:25:48;6.00;1.00
14614;DHT22;7393;51.446;6.800;2024-02-26T05:28:15;5.90;1.00
14614;DHT22;7393;51.446;6.800;2024-02-26T05:30:45;5.90;1.00
14614;DHT22;7393;51.446;6.800;2024-02-26T05:33:12;5.90;2.90
14614;DHT22;7393;51.446;6.800;2024-02-26T05:35:39;5.80;58.50
14614;DHT22;7393;51.446;6.800;2024-02-26T05:38:05;5.80;99.90
14614;DHT22;7393;51.446;6.800;2024-02-26T05:40:33;5.90;99.90
14614;DHT22;7393;51.446;6.800;2024-02-26T05:42:59;5.80;99.90
14614;DHT22;7393;51.446;6.800;2024-02-26T05:45:26;5.80;99.90
14614;DHT22;7393;51.446;6.800;2024-02-26T05:47:54;5.70;99.90
14614;DHT22;7393;51.446;6.800;2024-02-26T05:50:21;5.70;99.90
14614;DHT22;7393;51.446;6.800;2024-02-26T05:52:48;5.70;99.90
14614;DHT22;7393;51.446;6.800;2024-02-26T05:55:15;5.70;99.90
14614;DHT22;7393;51.446;6.800;2024-02-26T05:57:41;5.70;99.90
14614;DHT22;7393;51.446;6.800;2024-02-26T06:00:09;5.70;99.90
14614;DHT22;7393;51.446;6.800;2024-02-26T06:02:38;5.70;99.90
14614;DHT22;7393;51.446;6.800;2024-02-26T06:05:07;5.70;99.90
14614;DHT22;7393;51.446;6.800;2024-02-26T06:07:34;5.70;99.90
14614;DHT22;7393;51.446;6.800;2024-02-26T06:10:01;5.70;99.90
14614;DHT22;7393;51.446;6.800;2024-02-26T06:12:30;5.70;99.90
14614;DHT22;7393;51.446;6.800;2024-02-26T06:14:58;5.70;99.90
14614;DHT22;7393;51.446;6.800;2024-02-26T06:17:26;5.70;99.90
14614;DHT22;7393;51.446;6.800;2024-02-26T06:19:54;5.70;1.00
14614;DHT22;7393;51.446;6.800;2024-02-26T06:22:22;5.70;1.00
14614;DHT22;7393;51.446;6.800;2024-02-26T06:24:49;5.70;1.00
14614;DHT22;7393;51.446;6.800;2024-02-26T06:27:15;5.60;1.00
14614;DHT22;7393;51.446;6.800;2024-02-26T06:29:42;5.70;1.00
14614;DHT22;7393;51.446;6.800;2024-02-26T06:32:09;5.60;1.00
14614;DHT22;7393;51.446;6.800;2024-02-26T06:34:36;5.70;1.00
14614;DHT22;7393;51.446;6.800;2024-02-26T06:37:03;5.70;1.00
14614;DHT22;7393;51.446;6.800;2024-02-26T06:39:32;5.70;1.00
14614;DHT22;7393;51.446;6.800;2024-02-26T06:41:58;5.70;1.00
14614;DHT22;7393;51.446;6.800;2024-02-26T06:44:27;5.70;1.00
14614;DHT22;7393;51.446;6.800;2024-02-26T06:46:57;5.70;1.00
14614;DHT22;7393;51.446;6.800;2024-02-26T06:49:24;5.80;1.00
14614;DHT22;7393;51.446;6.800;2024-02-26T06:51:50;5.80;1.00
14614;DHT22;7393;51.446;6.800;2024-02-26T06:54:17;5.80;1.00
14614;DHT22;7393;51.446;6.800;2024-02-26T06:56:45;5.80;1.00
14614;DHT22;7393;51.446;6.800;2024-02-26T06:59:12;5.70;1.00
14614;DHT22;7393;51.446;6.800;2024-02-26T07:01:40;5.70;1.00
14614;DHT22;7393;51.446;6.800;2024-02-26T07:04:07;5.70;1.00
14614;DHT22;7393;51.446;6.800;2024-02-26T07:06:36;5.80;1.00
14614;DHT22;7393;51.446;6.800;2024-02-26T07:09:03;5.70;1.00
14614;DHT22;7393;51.446;6.800;2024-02-26T07:11:30;5.70;1.00
14614;DHT22;7393;51.446;6.800;2024-02-26T07:13:58;5.80;1.00
14614;DHT22;7393;51.446;6.800;2024-02-26T07:16:26;5.90;1.00
14614;DHT22;7393;51.446;6.800;2024-02-26T07:18:53;5.90;1.00
14614;DHT22;7393;51.446;6.800;2024-02-26T07:21:20;5.90;1.00
14614;DHT22;7393;51.446;6.800;2024-02-26T07:23:47;5.80;1.00
14614;DHT22;7393;51.446;6.800;2024-02-26T07:26:14;5.90;1.00
14614;DHT22;7393;51.446;6.800;2024-02-26T07:28:42;5.80;1.00
14614;DHT22;7393;51.446;6.800;2024-02-26T07:31:11;5.90;1.00
14614;DHT22;7393;51.446;6.800;2024-02-26T07:33:37;5.80;1.00
14614;DHT22;7393;51.446;6.800;2024-02-26T07:36:04;5.80;1.00
14614;DHT22;7393;51.446;6.800;2024-02-26T07:38:31;5.80;1.00
14614;DHT22;7393;51.446;6.800;2024-02-26T07:40:58;5.80;1.00
14614;DHT22;7393;51.446;6.800;2024-02-26T07:43:26;5.90;1.00
14614;DHT22;7393;51.446;6.800;2024-02-26T07:45:53;5.90;1.00
14614;DHT22;7393;51.446;6.800;2024-02-26T07:48:21;5.80;1.00
14614;DHT22;7393;51.446;6.800;2024-02-26T07:50:48;5.90;1.00
14614;DHT22;7393;51.446;6.800;2024-02-26T07:53:15;5.90;1.00
14614;DHT22;7393;51.446;6.800;2024-02-26T07:55:41;5.90;1.00
14614;DHT22;7393;51.446;6.800;2024-02-26T07:58:08;5.90;1.00
14614;DHT22;7393;51.446;6.800;2024-02-26T08:00:35;5.90;1.00
14614;DHT22;7393;51.446;6.800;2024-02-26T08:03:02;5.90;1.00
14614;DHT22;7393;51.446;6.800;2024-02-26T08:05:30;5.90;23.20
14614;DHT22;7393;51.446;6.800;2024-02-26T08:07:57;5.90;25.30
14614;DHT22;7393;51.446;6.800;2024-02-26T08:10:24;6.00;1.00
14614;DHT22;7393;51.446;6.800;2024-02-26T08:12:50;5.90;1.00
14614;DHT22;7393;51.446;6.800;2024-02-26T08:15:17;5.90;1.20
14614;DHT22;7393;51.446;6.800;2024-02-26T08:17:45;5.90;1.20
14614;DHT22;7393;51.446;6.800;2024-02-26T08:20:13;5.90;41.30
14614;DHT22;7393;51.446;6.800;2024-02-26T08:22:41;5.90;99.90
14614;DHT22;7393;51.446;6.800;2024-02-26T08:25:09;5.90;99.90
14614;DHT22;7393;51.446;6.800;2024-02-26T08:27:36;5.90;99.90
14614;DHT22;7393;51.446;6.800;2024-02-26T08:30:03;5.90;99.90
14614;DHT22;7393;51.446;6.800;2024-02-26T08:32:30;6.00;99.90
14614;DHT22;7393;51.446;6.800;2024-02-26T08:34:57;6.00;99.90
14614;DHT22;7393;51.446;6.800;2024-02-26T08:37:24;6.00;99.90
14614;DHT22;7393;51.446;6.800;2024-02-26T08:39:52;6.00;99.90
14614;DHT22;7393;51.446;6.800;2024-02-26T08:42:19;6.00;99.90
14614;DHT22;7393;51.446;6.800;2024-02-26T08:44:45;5.90;99.90
14614;DHT22;7393;51.446;6.800;2024-02-26T08:47:12;5.90;99.90
14614;DHT22;7393;51.446;6.800;2024-02-26T08:49:42;5.90;99.90
14614;DHT22;7393;51.446;6.800;2024-02-26T08:52:09;5.90;1.00
14614;DHT22;7393;51.446;6.800;2024-02-26T08:54:36;5.90;1.00
14614;DHT22;7393;51.446;6.800;2024-02-26T08:57:04;5.90;1.00
14614;DHT22;7393;51.446;6.800;2024-02-26T08:59:31;5.90;1.00
14614;DHT22;7393;51.446;6.800;2024-02-26T09:01:57;5.90;1.00
14614;DHT22;7393;51.446;6.800;2024-02-26T09:04:24;6.00;1.00
14614;DHT22;7393;51.446;6.800;2024-02-26T09:06:51;6.00;1.00
14614;DHT22;7393;51.446;6.800;2024-02-26T09:09:19;6.00;1.00
14614;DHT22;7393;51.446;6.800;2024-02-26T09:11:47;6.00;1.00
14614;DHT22;7393;51.446;6.800;2024-02-26T09:14:18;6.10;99.90
14614;DHT22;7393;51.446;6.800;2024-02-26T09:16:45;6.10;99.90
14614;DHT22;7393;51.446;6.800;2024-02-26T09:19:13;6.10;99.90
14614;DHT22;7393;51.446;6.800;2024-02-26T09:21:42;6.10;99.90
14614;DHT22;7393;51.446;6.800;2024-02-26T09:24:09;6.10;99.90
14614;DHT22;7393;51.446;6.800;2024-02-26T09:26:36;6.10;99.90
14614;DHT22;7393;51.446;6.800;2024-02-26T09:29:03;6.10;99.90
14614;DHT22;7393;51.446;6.800;2024-02-26T09:31:32;6.10;99.90
14614;DHT22;7393;51.446;6.800;2024-02-26T09:33:59;6.10;99.90
14614;DHT22;7393;51.446;6.800;2024-02-26T09:36:26;6.10;99.90
14614;DHT22;7393;51.446;6.800;2024-02-26T09:38:53;6.10;99.90
14614;DHT22;7393;51.446;6.800;2024-02-26T09:41:19;6.10;99.90
14614;DHT22;7393;51.446;6.800;2024-02-26T09:43:48;6.10;99.90
14614;DHT22;7393;51.446;6.800;2024-02-26T09:46:19;6.10;99.90
14614;DHT22;7393;51.446;6.800;2024-02-26T09:48:47;6.10;99.90
14614;DHT22;7393;51.446;6.800;2024-02-26T09:51:15;6.10;99.90
14614;DHT22;7393;51.446;6.800;2024-02-26T09:53:43;6.10;99.90
14614;DHT22;7393;51.446;6.800;2024-02-26T09:56:11;6.10;99.90
14614;DHT22;7393;51.446;6.800;2024-02-26T09:58:40;6.10;99.90
14614;DHT22;7393;51.446;6.800;2024-02-26T10:01:13;6.10;99.90
14614;DHT22;7393;51.446;6.800;2024-02-26T10:03:41;6.10;99.90
14614;DHT22;7393;51.446;6.800;2024-02-26T10:06:11;6.10;99.90
14614;DHT22;7393;51.446;6.800;2024-02-26T10:08:38;6.10;1.00
14614;DHT22;7393;51.446;6.800;2024-02-26T10:11:07;6.10;1.00
14614;DHT22;7393;51.446;6.800;2024-02-26T10:13:34;6.10;1.00
14614;DHT22;7393;51.446;6.800;2024-02-26T10:16:01;6.10;1.00
14614;DHT22;7393;51.446;6.800;2024-02-26T10:18:45;6.20;1.00
14614;DHT22;7393;51.446;6.800;2024-02-26T10:21:13;6.20;1.00
14614;DHT22;7393;51.446;6.800;2024-02-26T10:23:42;6.20;99.90
14614;DHT22;7393;51.446;6.800;2024-02-26T10:26:10;6.30;99.90
14614;DHT22;7393;51.446;6.800;2024-02-26T10:28:39;6.30;99.90
14614;DHT22;7393;51.446;6.800;2024-02-26T10:31:06;6.20;99.90
14614;DHT22;7393;51.446;6.800;2024-02-26T10:33:33;6.20;1.00
14614;DHT22;7393;51.446;6.800;2024-02-26T10:36:01;6.30;1.00
14614;DHT22;7393;51.446;6.800;2024-02-26T10:38:29;6.30;99.90
14614;DHT22;7393;51.446;6.800;2024-02-26T10:40:56;6.20;99.90
14614;DHT22;7393;51.446;6.800;2024-02-26T10:43:24;6.30;1.00
14614;DHT22;7393;51.446;6.800;2024-02-26T10:45:51;6.20;1.00
14614;DHT22;7393;51.446;6.800;2024-02-26T10:48:18;6.20;1.00
14614;DHT22;7393;51.446;6.800;2024-02-26T10:50:46;6.20;1.00
14614;DHT22;7393;51.446;6.800;2024-02-26T10:53:17;6.30;1.00
14614;DHT22;7393;51.446;6.800;2024-02-26T10:55:49;6.30;1.00
14614;DHT22;7393;51.446;6.800;2024-02-26T10:58:16;6.30;1.00
14614;DHT22;7393;51.446;6.800;2024-02-26T11:00:43;6.30;1.00
14614;DHT22;7393;51.446;6.800;2024-02-26T11:03:13;6.30;1.00
14614;DHT22;7393;51.446;6.800;2024-02-26T11:05:41;6.40;5.60
14614;DHT22;7393;51.446;6.800;2024-02-26T11:08:10;6.40;99.90
14614;DHT22;7393;51.446;6.800;2024-02-26T11:10:37;6.40;99.90
14614;DHT22;7393;51.446;6.800;2024-02-26T11:13:09;6.40;99.90
14614;DHT22;7393;51.446;6.800;2024-02-26T11:15:39;6.50;99.90
14614;DHT22;7393;51.446;6.800;2024-02-26T11:18:07;6.50;99.90
14614;DHT22;7393;51.446;6.800;2024-02-26T11:20:35;6.50;28.00
14614;DHT22;7393;51.446;6.800;2024-02-26T11:23:04;6.50;78.20
14614;DHT22;7393;51.446;6.800;2024-02-26T11:25:31;6.50;99.90
14614;DHT22;7393;51.446;6.800;2024-02-26T11:28:01;6.60;99.90
14614;DHT22;7393;51.446;6.800;2024-02-26T11:30:32;6.60;99.90
14614;DHT22;7393;51.446;6.800;2024-02-26T11:33:00;6.70;99.90
14614;DHT22;7393;51.446;6.800;2024-02-26T11:35:28;6.70;99.90
14614;DHT22;7393;51.446;6.800;2024-02-26T11:37:56;6.80;99.90
14614;DHT22;7393;51.446;6.800;2024-02-26T11:40:24;6.80;1.00
14614;DHT22;7393;51.446;6.800;2024-02-26T11:42:52;6.80;1.00
14614;DHT22;7393;51.446;6.800;2024-02-26T11:45:49;6.80;1.00
14614;DHT22;7393;51.446;6.800;2024-02-26T11:48:20;6.90;1.00
14614;DHT22;7393;51.446;6.800;2024-02-26T11:50:49;6.80;1.00
14614;DHT22;7393;51.446;6.800;2024-02-26T11:53:20;6.90;1.00
14614;DHT22;7393;51.446;6.800;2024-02-26T11:55:47;6.90;1.00
14614;DHT22;7393;51.446;6.800;2024-02-26T11:58:14;7.00;1.00
14614;DHT22;7393;51.446;6.800;2024-02-26T12:00:41;7.00;99.90
14614;DHT22;7393;51.446;6.800;2024-02-26T12:03:09;7.10;99.90
14614;DHT22;7393;51.446;6.800;2024-02-26T12:05:37;7.10;99.90
14614;DHT22;7393;51.446;6.800;2024-02-26T12:08:06;7.10;99.90
14614;DHT22;7393;51.446;6.800;2024-02-26T12:10:35;7.10;99.90
14614;DHT22;7393;51.446;6.800;2024-02-26T12:13:07;7.20;27.50
14614;DHT22;7393;51.446;6.800;2024-02-26T12:15:37;7.20;99.90
14614;DHT22;7393;51.446;6.800;2024-02-26T12:18:05;7.20;99.90
14614;DHT22;7393;51.446;6.800;2024-02-26T12:20:34;7.20;99.90
14614;DHT22;7393;51.446;6.800;2024-02-26T12:23:02;7.30;99.90
14614;DHT22;7393;51.446;6.800;2024-02-26T12:25:30;7.30;99.90
14614;DHT22;7393;51.446;6.800;2024-02-26T12:27:58;7.30;95.90
14614;DHT22;7393;51.446;6.800;2024-02-26T12:30:26;7.30;1.00
14614;DHT22;7393;51.446;6.800;2024-02-26T12:32:55;7.30;1.00
14614;DHT22;7393;51.446;6.800;2024-02-26T12:35:24;7.40;99.90
14614;DHT22;7393;51.446;6.800;2024-02-26T12:37:52;7.40;1.00
14614;DHT22;7393;51.446;6.800;2024-02-26T12:40:20;7.40;1.00
14614;DHT22;7393;51.446;6.800;2024-02-26T12:42:47;7.40;1.00
14614;DHT22;7393;51.446;6.800;2024-02-26T12:45:15;7.40;1.00
14614;DHT22;7393;51.446;6.800;2024-02-26T12:47:43;7.40;99.90
14614;DHT22;7393;51.446;6.800;2024-02-26T12:50:11;7.40;99.90
14614;DHT22;7393;51.446;6.800;2024-02-26T12:52:39;7.40;99.90
14614;DHT22;7393;51.446;6.800;2024-02-26T12:55:09;7.50;99.90
14614;DHT22;7393;51.446;6.800;2024-02-26T12:57:38;7.40;97.60
14614;DHT22;7393;51.446;6.800;2024-02-26T13:00:08;7.40;99.90
14614;DHT22;7393;51.446;6.800;2024-02-26T13:02:38;7.50;93.40
14614;DHT22;7393;51.446;6.800;2024-02-26T13:05:06;7.40;20.30
14614;DHT22;7393;51.446;6.800;2024-02-26T13:07:34;7.50;1.00
14614;DHT22;7393;51.446;6.800;2024-02-26T13:10:01;7.50;1.00
14614;DHT22;7393;51.446;6.800;2024-02-26T13:12:29;7.40;1.00
14614;DHT22;7393;51.446;6.800;2024-02-26T13:14:59;7.40;1.00
14614;DHT22;7393;51.446;6.800;2024-02-26T13:17:26;7.40;1.00
14614;DHT22;7393;51.446;6.800;2024-02-26T13:19:54;7.40;1.00
14614;DHT22;7393;51.446;6.800;2024-02-26T13:22:21;7.50;1.00
14614;DHT22;7393;51.446;6.800;2024-02-26T13:24:53;7.50;1.00
14614;DHT22;7393;51.446;6.800;2024-02-26T13:27:21;7.50;1.00
14614;DHT22;7393;51.446;6.800;2024-02-26T13:30:05;7.50;1.00
14614;DHT22;7393;51.446;6.800;2024-02-26T13:32:33;7.50;1.00
14614;DHT22;7393;51.446;6.800;2024-02-26T13:35:08;7.50;1.00
14614;DHT22;7393;51.446;6.800;2024-02-26T13:37:36;7.50;1.00
14614;DHT22;7393;51.446;6.800;2024-02-26T13:40:05;7.50;1.00
14614;DHT22;7393;51.446;6.800;2024-02-26T13:42:32;7.50;1.00
14614;DHT22;7393;51.446;6.800;2024-02-26T13:45:01;7.50;1.00
14614;DHT22;7393;51.446;6.800;2024-02-26T13:47:28;7.60;1.00
14614;DHT22;7393;51.446;6.800;2024-02-26T13:49:54;7.60;1.00
14614;DHT22;7393;51.446;6.800;2024-02-26T13:52:22;7.60;1.00
14614;DHT22;7393;51.446;6.800;2024-02-26T13:54:49;7.60;1.00
14614;DHT22;7393;51.446;6.800;2024-02-26T13:57:16;7.60;1.00
14614;DHT22;7393;51.446;6.800;2024-02-26T13:59:43;7.70;1.00
14614;DHT22;7393;51.446;6.800;2024-02-26T14:02:11;7.70;1.00
14614;DHT22;7393;51.446;6.800;2024-02-26T14:04:38;7.70;1.00
14614;DHT22;7393;51.446;6.800;2024-02-26T14:07:05;7.70;1.00
14614;DHT22;7393;51.446;6.800;2024-02-26T14:09:32;7.70;1.00
14614;DHT22;7393;51.446;6.800;2024-02-26T14:11:59;7.70;1.00
14614;DHT22;7393;51.446;6.800;2024-02-26T14:14:27;7.70;1.00
14614;DHT22;7393;51.446;6.800;2024-02-26T14:16:54;7.70;1.00
14614;DHT22;7393;51.446;6.800;2024-02-26T14:19:22;7.70;1.00
14614;DHT22;7393;51.446;6.800;2024-02-26T14:21:49;7.80;1.00
14614;DHT22;7393;51.446;6.800;2024-02-26T14:24:16;7.80;1.00
14614;DHT22;7393;51.446;6.800;2024-02-26T14:26:42;7.70;1.00
14614;DHT22;7393;51.446;6.800;2024-02-26T14:29:09;7.70;1.00
14614;DHT22;7393;51.446;6.800;2024-02-26T14:31:36;7.70;1.00
14614;DHT22;7393;51.446;6.800;2024-02-26T14:34:03;7.70;1.00
14614;DHT22;7393;51.446;6.800;2024-02-26T14:36:31;7.70;1.00
14614;DHT22;7393;51.446;6.800;2024-02-26T14:38:57;7.70;1.00
14614;DHT22;7393;51.446;6.800;2024-02-26T14:41:24;7.70;1.00
14614;DHT22;7393;51.446;6.800;2024-02-26T14:43:51;7.70;1.00
14614;DHT22;7393;51.446;6.800;2024-02-26T14:46:18;7.70;1.00
14614;DHT22;7393;51.446;6.800;2024-02-26T14:48:45;7.70;1.00
14614;DHT22;7393;51.446;6.800;2024-02-26T14:51:12;7.60;1.00
14614;DHT22;7393;51.446;6.800;2024-02-26T14:53:40;7.60;1.00
14614;DHT22;7393;51.446;6.800;2024-02-26T14:56:06;7.60;1.00
14614;DHT22;7393;51.446;6.800;2024-02-26T14:58:35;7.60;1.00
14614;DHT22;7393;51.446;6.800;2024-02-26T15:01:03;7.60;1.00
14614;DHT22;7393;51.446;6.800;2024-02-26T15:03:30;7.60;1.00
14614;DHT22;7393;51.446;6.800;2024-02-26T15:05:57;7.60;1.00
14614;DHT22;7393;51.446;6.800;2024-02-26T15:08:24;7.70;1.00
14614;DHT22;7393;51.446;6.800;2024-02-26T15:10:52;7.70;1.00
14614;DHT22;7393;51.446;6.800;2024-02-26T15:13:19;7.70;1.00
14614;DHT22;7393;51.446;6.800;2024-02-26T15:15:45;7.60;1.00
14614;DHT22;7393;51.446;6.800;2024-02-26T15:18:12;7.60;1.00
14614;DHT22;7393;51.446;6.800;2024-02-26T15:20:41;7.60;1.00
14614;DHT22;7393;51.446;6.800;2024-02-26T15:23:08;7.60;1.00
14614;DHT22;7393;51.446;6.800;2024-02-26T15:25:35;7.60;1.00
14614;DHT22;7393;51.446;6.800;2024-02-26T15:28:03;7.70;1.00
14614;DHT22;7393;51.446;6.800;2024-02-26T15:30:31;7.70;1.00
14614;DHT22;7393;51.446;6.800;2024-02-26T15:32:58;7.60;1.00
14614;DHT22;7393;51.446;6.800;2024-02-26T15:35:26;7.60;1.00
14614;DHT22;7393;51.446;6.800;2024-02-26T15:37:53;7.60;1.00
14614;DHT22;7393;51.446;6.800;2024-02-26T15:40:20;7.60;1.00
14614;DHT22;7393;51.446;6.800;2024-02-26T15:42:47;7.60;1.00
14614;DHT22;7393;51.446;6.800;2024-02-26T15:45:16;7.50;1.00
14614;DHT22;7393;51.446;6.800;2024-02-26T15:47:43;7.50;1.00
14614;DHT22;7393;51.446;6.800;2024-02-26T15:50:10;7.50;1.00
14614;DHT22;7393;51.446;6.800;2024-02-26T15:52:37;7.50;1.00
14614;DHT22;7393;51.446;6.800;2024-02-26T15:55:05;7.50;1.00
14614;DHT22;7393;51.446;6.800;2024-02-26T15:57:31;7.50;1.00
14614;DHT22;7393;51.446;6.800;2024-02-26T15:59:59;7.50;1.00
14614;DHT22;7393;51.446;6.800;2024-02-26T16:02:32;7.50;1.00
14614;DHT22;7393;51.446;6.800;2024-02-26T16:04:58;7.50;1.00
14614;DHT22;7393;51.446;6.800;2024-02-26T16:07:30;7.50;1.00
14614;DHT22;7393;51.446;6.800;2024-02-26T16:09:58;7.50;1.00
14614;DHT22;7393;51.446;6.800;2024-02-26T16:12:28;7.40;1.00
14614;DHT22;7393;51.446;6.800;2024-02-26T16:15:03;7.40;1.00